createdAt,value
2018-11-22T12:16:22.970Z,97.00
2018-11-22T12:21:23.680Z,96.90
2018-11-22T12:26:24.250Z,96.50
2018-11-22T12:31:25.525Z,97.10
2018-11-22T12:36:30.339Z,96.40
2018-11-22T12:41:31.159Z,96.00
2018-11-22T12:46:32.013Z,95.60
2018-11-22T12:51:32.520Z,95.10
2018-11-22T12:56:33.423Z,94.50
2018-11-22T13:01:34.019Z,94.20
2018-11-22T13:06:35.088Z,93.50
2018-11-22T13:11:36.144Z,92.70
2018-11-22T13:16:36.923Z,92.50
2018-11-22T13:21:37.555Z,91.90
2018-11-22T13:26:38.243Z,88.80
2018-11-22T13:31:38.868Z,88.40
2018-11-22T13:36:39.723Z,87.00
2018-11-22T13:41:40.338Z,85.80
2018-11-22T13:46:42.759Z,84.60
2018-11-22T13:51:43.574Z,83.70
2018-11-22T13:56:44.442Z,83.40
2018-11-22T14:01:45.208Z,82.60
2018-11-22T14:06:45.870Z,82.10
2018-11-22T14:11:46.550Z,82.90
2018-11-22T14:16:47.278Z,81.90
2018-11-22T14:21:48.098Z,83.50
2018-11-22T14:26:49.888Z,83.20
2018-11-22T14:31:50.556Z,84.40
2018-11-22T14:36:51.156Z,84.90
2018-11-22T14:41:51.912Z,86.10
2018-11-22T14:46:52.628Z,87.00
2018-11-22T14:51:54.864Z,87.50
2018-11-22T14:56:55.536Z,89.00
2018-11-22T15:01:56.173Z,90.10
2018-11-22T15:06:57.454Z,90.50
2018-11-22T15:11:57.726Z,91.80
2018-11-22T15:16:58.444Z,92.60
2018-11-22T15:21:59.186Z,93.50
2018-11-22T15:26:59.997Z,95.20
2018-11-22T15:32:00.775Z,96.60
2018-11-22T15:37:01.504Z,98.00
2018-11-22T15:42:02.025Z,99.90
2018-11-22T15:47:02.618Z,99.90
2018-11-22T15:52:03.189Z,99.90
2018-11-22T15:57:04.077Z,99.90
2018-11-22T16:02:04.728Z,99.90
2018-11-22T16:07:05.535Z,99.90
2018-11-22T16:12:06.389Z,99.90
2018-11-22T16:17:07.082Z,99.90
2018-11-22T16:22:07.717Z,99.90
2018-11-22T16:27:08.406Z,99.90
2018-11-22T16:32:08.991Z,99.90
2018-11-22T16:37:09.483Z,99.90
2018-11-22T16:42:10.241Z,99.90
2018-11-22T16:47:11.021Z,99.90
2018-11-22T16:52:16.516Z,99.90
2018-11-22T16:57:17.136Z,99.90
2018-11-22T17:02:17.793Z,99.90
2018-11-22T17:07:18.452Z,99.90
2018-11-22T17:12:19.007Z,99.90
2018-11-22T17:17:19.576Z,99.90
2018-11-22T17:22:20.062Z,99.90
2018-11-22T17:27:20.858Z,99.90
2018-11-22T17:32:21.628Z,99.90
2018-11-22T17:37:22.361Z,99.90
2018-11-22T17:42:23.543Z,99.90
2018-11-22T17:47:24.536Z,99.90
2018-11-22T17:52:25.497Z,99.90
2018-11-22T17:57:26.001Z,99.90
2018-11-22T18:02:27.021Z,99.90
2018-11-22T18:07:27.838Z,99.90
2018-11-22T18:12:28.606Z,99.90
2018-11-22T18:17:29.459Z,99.90
2018-11-22T18:22:30.204Z,99.90
2018-11-22T18:27:30.991Z,99.90
2018-11-22T18:32:31.681Z,99.90
2018-11-22T18:37:32.629Z,99.90
2018-11-22T18:42:33.712Z,99.90
2018-11-22T18:47:34.490Z,99.90
2018-11-22T18:52:35.211Z,99.90
2018-11-22T18:57:44.913Z,99.90
2018-11-22T19:02:47.400Z,99.90
2018-11-22T19:07:50.318Z,99.90
2018-11-22T19:12:53.705Z,99.90
2018-11-22T19:17:55.698Z,99.90
2018-11-22T19:22:57.977Z,99.90
2018-11-22T19:28:06.376Z,99.90
2018-11-22T19:33:09.534Z,99.90
2018-11-22T19:38:09.752Z,99.90
2018-11-22T19:43:10.984Z,99.90
2018-11-22T19:48:11.559Z,99.90
2018-11-22T19:53:13.620Z,99.90
2018-11-22T19:58:15.683Z,99.90
2018-11-22T20:03:16.369Z,99.90
2018-11-22T20:08:19.161Z,99.90
2018-11-22T20:13:19.119Z,99.90
2018-11-22T20:18:19.500Z,99.90
2018-11-22T20:23:21.813Z,99.90
2018-11-22T20:28:20.809Z,99.90
2018-11-22T20:33:21.616Z,99.90
2018-11-22T20:38:22.216Z,99.90
2018-11-22T20:43:22.870Z,99.90
2018-11-22T20:48:23.562Z,99.90
2018-11-22T20:53:23.944Z,99.90
2018-11-22T20:58:25.270Z,99.90
2018-11-22T21:03:26.135Z,99.90
2018-11-22T21:08:26.855Z,99.90
2018-11-22T21:13:27.418Z,99.90
2018-11-22T21:18:28.177Z,99.90
2018-11-22T21:23:28.890Z,99.90
2018-11-22T21:28:32.585Z,99.90
2018-11-22T21:33:33.499Z,99.90
2018-11-22T21:38:34.523Z,99.90
2018-11-22T21:43:35.512Z,99.90
2018-11-22T21:48:36.233Z,99.90
2018-11-22T21:53:36.756Z,99.90
2018-11-22T21:58:37.610Z,99.90
2018-11-22T22:03:38.220Z,99.90
2018-11-22T22:08:38.889Z,99.90
2018-11-22T22:13:39.678Z,99.90
2018-11-22T22:18:40.353Z,99.90
2018-11-22T22:23:40.892Z,99.90
2018-11-22T22:28:41.590Z,99.90
2018-11-22T22:33:42.635Z,99.90
2018-11-22T22:38:43.418Z,99.90
2018-11-22T22:43:44.052Z,99.90
2018-11-22T22:48:44.821Z,99.90
2018-11-22T22:53:45.422Z,99.90
2018-11-22T22:58:46.042Z,99.90
2018-11-22T23:03:46.601Z,99.90
2018-11-22T23:08:47.704Z,99.90
2018-11-22T23:13:48.259Z,99.90
2018-11-22T23:18:48.792Z,99.90
2018-11-22T23:29:38.825Z,99.90
2018-11-22T23:34:39.678Z,99.90
2018-11-22T23:39:40.364Z,99.90
2018-11-22T23:44:41.062Z,99.90
2018-11-22T23:49:42.199Z,99.90
2018-11-22T23:54:43.098Z,99.90
2018-11-22T23:59:43.745Z,99.90
